Time;durP1;ratioP1;P1;durP2;ratioP2;P2;SDS_P1;SDS_P2;PMS_P1;PMS_P2;Temp;Humidity;BMP_temperature;BMP_pressure;BME280_temperature;BME280_humidity;BME280_pressure;Samples;Min_cycle;Max_cycle;Signal;HPM_P1;HPM_P2
2022/10/29 00:01:31;;;;;;;26.77;12.10;;;18.10;99.90;;;;;;5060148;28;20029;-71
2022/10/29 00:03:57;;;;;;;34.53;11.00;;;18.10;99.90;;;;;;5055131;28;20037;-71
2022/10/29 00:06:23;;;;;;;29.63;11.10;;;18.00;99.90;;;;;;5067503;28;20464;-71
2022/10/29 00:08:48;;;;;;;22.05;10.32;;;18.00;99.90;;;;;;5061714;28;20535;-71
2022/10/29 00:11:19;;;;;;;27.52;10.38;;;18.00;99.90;;;;;;5058799;28;20094;-71
2022/10/29 00:13:46;;;;;;;25.08;9.98;;;17.90;99.90;;;;;;5062264;28;20035;-70
2022/10/29 00:16:15;;;;;;;15.65;8.38;;;18.00;99.90;;;;;;5061596;28;20480;-70
2022/10/29 00:18:41;;;;;;;21.42;10.07;;;18.00;99.90;;;;;;5062223;28;20033;-70
2022/10/29 00:21:10;;;;;;;23.48;10.75;;;18.00;99.90;;;;;;5062396;28;20035;-70
2022/10/29 00:23:36;;;;;;;28.98;10.07;;;18.00;99.90;;;;;;5065992;28;20032;-70
2022/10/29 00:26:03;;;;;;;15.88;9.07;;;18.00;99.90;;;;;;5062214;28;20562;-71
2022/10/29 00:28:29;;;;;;;17.42;9.48;;;17.90;99.90;;;;;;5063977;28;20032;-71
2022/10/29 00:30:55;;;;;;;24.58;9.13;;;18.00;99.90;;;;;;5061096;28;20381;-71
2022/10/29 00:33:21;;;;;;;17.85;9.18;;;18.00;99.90;;;;;;5064323;28;20032;-70
2022/10/29 00:36:10;;;;;;;24.05;9.45;;;18.00;99.90;;;;;;5065478;28;20017;-72
2022/10/29 00:38:35;;;;;;;23.95;9.98;;;17.90;99.90;;;;;;5063941;28;20082;-71
2022/10/29 00:41:03;;;;;;;26.15;10.00;;;17.90;99.90;;;;;;5064444;28;20036;-71
2022/10/29 00:43:32;;;;;;;24.48;9.40;;;17.90;99.90;;;;;;5064584;28;20036;-70
2022/10/29 00:46:07;;;;;;;23.33;9.02;;;17.90;99.90;;;;;;5065439;28;20032;-70
2022/10/29 00:48:38;;;;;;;19.67;8.60;;;17.90;99.90;;;;;;5064604;28;20094;-70
2022/10/29 00:51:07;;;;;;;29.30;9.30;;;17.90;99.90;;;;;;5063622;28;20099;-71
2022/10/29 00:53:41;;;;;;;21.65;9.77;;;17.90;99.90;;;;;;5065074;28;20404;-71
2022/10/29 00:56:07;;;;;;;21.98;10.23;;;17.90;99.90;;;;;;5066398;28;20097;-70
2022/10/29 00:58:33;;;;;;;19.70;9.25;;;17.80;99.90;;;;;;5062992;28;20763;-70
2022/10/29 01:00:59;;;;;;;20.67;9.95;;;17.80;99.90;;;;;;5063910;28;20122;-70
2022/10/29 01:03:24;;;;;;;19.08;9.80;;;17.80;99.90;;;;;;5067525;28;20031;-70
2022/10/29 01:05:52;;;;;;;21.92;9.00;;;17.80;99.90;;;;;;5066567;28;20070;-70
2022/10/29 01:08:18;;;;;;;22.15;8.98;;;17.70;99.90;;;;;;5064697;28;20037;-70
2022/10/29 01:10:58;;;;;;;22.10;9.05;;;17.70;99.90;;;;;;5063091;28;20486;-70
2022/10/29 01:13:32;;;;;;;22.48;9.02;;;17.70;99.90;;;;;;5064929;28;20036;-70
2022/10/29 01:16:17;;;;;;;17.15;8.68;;;17.70;99.90;;;;;;5067374;28;20028;-70
2022/10/29 01:18:53;;;;;;;23.27;9.02;;;17.70;99.90;;;;;;5062284;28;20059;-70
2022/10/29 01:21:52;;;;;;;21.63;9.40;;;17.70;99.90;;;;;;5063632;28;20036;-70
2022/10/29 01:24:31;;;;;;;24.30;10.32;;;17.70;99.90;;;;;;5065490;28;20139;-71
2022/10/29 01:27:34;;;;;;;17.85;8.57;;;17.70;99.90;;;;;;5061841;28;20029;-70
2022/10/29 01:30:09;;;;;;;18.55;8.30;;;17.60;99.90;;;;;;5062943;28;20484;-71
2022/10/29 01:32:37;;;;;;;18.85;8.00;;;17.70;99.90;;;;;;5064218;28;20086;-71
2022/10/29 01:35:28;;;;;;;22.83;9.93;;;17.60;99.90;;;;;;5065850;28;20123;-70
2022/10/29 01:38:32;;;;;;;19.17;9.15;;;17.60;99.90;;;;;;5066259;28;20059;-71
2022/10/29 01:41:20;;;;;;;21.70;9.52;;;17.60;99.90;;;;;;5064258;28;20037;-70
2022/10/29 01:43:54;;;;;;;27.65;9.65;;;17.60;99.90;;;;;;5068810;28;20489;-70
2022/10/29 01:46:30;;;;;;;22.45;10.40;;;17.60;99.90;;;;;;5065456;28;20024;-70
2022/10/29 01:49:03;;;;;;;19.23;8.70;;;17.50;99.90;;;;;;5066660;28;20035;-70
2022/10/29 01:51:31;;;;;;;22.05;9.50;;;17.50;99.90;;;;;;5066797;28;20025;-70
2022/10/29 01:53:59;;;;;;;21.58;9.27;;;17.50;99.90;;;;;;5070622;28;20032;-70
2022/10/29 01:56:25;;;;;;;20.92;9.57;;;17.50;99.90;;;;;;5069610;28;20025;-70
2022/10/29 01:58:55;;;;;;;18.80;9.23;;;17.50;99.90;;;;;;5066681;28;20033;-70
2022/10/29 02:02:03;;;;;;;20.30;8.85;;;17.50;99.90;;;;;;5070891;28;20468;-70
2022/10/29 02:04:52;;;;;;;23.48;8.75;;;17.50;99.90;;;;;;5063172;28;20045;-70
2022/10/29 02:07:46;;;;;;;23.02;8.52;;;17.50;99.90;;;;;;5047491;28;20040;-71
2022/10/29 02:10:28;;;;;;;19.48;9.10;;;17.40;99.90;;;;;;5069340;28;20020;-70
2022/10/29 02:12:55;;;;;;;25.98;8.88;;;17.40;99.90;;;;;;5067297;28;20040;-70
2022/10/29 02:15:24;;;;;;;15.30;7.40;;;17.40;99.90;;;;;;5070807;28;20032;-70
2022/10/29 02:17:50;;;;;;;19.45;9.13;;;17.40;99.90;;;;;;5066431;28;20040;-70
2022/10/29 02:20:16;;;;;;;17.15;9.73;;;17.40;99.90;;;;;;5067366;28;20074;-70
2022/10/29 02:22:42;;;;;;;16.73;8.80;;;17.30;99.90;;;;;;5068769;28;20400;-71
2022/10/29 02:25:08;;;;;;;18.65;8.70;;;17.30;99.90;;;;;;5065210;28;20028;-71
2022/10/29 02:27:34;;;;;;;17.77;9.45;;;17.30;99.90;;;;;;5069561;28;20493;-70
2022/10/29 02:30:00;;;;;;;19.98;9.82;;;17.20;99.90;;;;;;5068671;28;20060;-70
2022/10/29 02:32:26;;;;;;;17.13;9.60;;;17.20;99.90;;;;;;5066884;28;20020;-71
2022/10/29 02:34:51;;;;;;;21.15;9.40;;;17.20;99.90;;;;;;5068547;28;20028;-70
2022/10/29 02:37:17;;;;;;;20.20;9.55;;;17.10;99.90;;;;;;5068012;28;20500;-70
2022/10/29 02:39:43;;;;;;;21.52;9.88;;;17.10;99.90;;;;;;5067328;28;20037;-70
2022/10/29 02:42:09;;;;;;;23.45;9.90;;;17.10;99.90;;;;;;5070210;28;20044;-71
2022/10/29 02:44:34;;;;;;;20.33;9.95;;;17.20;99.90;;;;;;5070077;28;20107;-71
2022/10/29 02:47:00;;;;;;;20.70;8.15;;;17.10;99.90;;;;;;5069910;28;20040;-70
2022/10/29 02:49:25;;;;;;;18.98;8.27;;;17.10;99.90;;;;;;5067951;28;20095;-70
2022/10/29 02:51:51;;;;;;;14.65;9.18;;;17.10;99.90;;;;;;5068951;28;20040;-70
2022/10/29 02:54:17;;;;;;;22.70;8.75;;;17.10;99.90;;;;;;5068056;28;20052;-70
2022/10/29 02:56:42;;;;;;;20.73;8.50;;;17.10;99.90;;;;;;5058278;28;20027;-71
2022/10/29 02:59:08;;;;;;;23.13;8.02;;;17.10;99.90;;;;;;5061637;28;20020;-71
2022/10/29 03:01:34;;;;;;;16.80;8.80;;;17.10;99.90;;;;;;5066390;28;20041;-70
2022/10/29 03:03:59;;;;;;;23.40;7.03;;;17.10;99.90;;;;;;5061764;28;20057;-70
2022/10/29 03:06:25;;;;;;;19.27;7.90;;;17.10;99.90;;;;;;5060180;28;20036;-71
2022/10/29 03:08:51;;;;;;;21.13;9.38;;;17.10;99.90;;;;;;5060315;28;20029;-70
2022/10/29 03:11:16;;;;;;;18.55;8.40;;;17.10;99.90;;;;;;5070140;28;20024;-71
2022/10/29 03:13:42;;;;;;;17.27;9.68;;;17.10;99.90;;;;;;5060254;28;20496;-71
2022/10/29 03:16:08;;;;;;;21.98;8.00;;;17.00;99.90;;;;;;5065322;28;20079;-70
2022/10/29 03:18:34;;;;;;;25.75;8.88;;;17.00;99.90;;;;;;5064028;28;20037;-71
2022/10/29 03:20:59;;;;;;;20.45;8.75;;;17.00;99.90;;;;;;5057370;28;20025;-70
2022/10/29 03:23:25;;;;;;;26.70;10.82;;;17.00;99.90;;;;;;5062341;28;20029;-71
2022/10/29 03:25:52;;;;;;;25.30;9.80;;;17.00;99.90;;;;;;5061607;28;20024;-70
2022/10/29 03:28:19;;;;;;;22.30;10.38;;;17.00;99.90;;;;;;5067869;28;20078;-71
2022/10/29 03:30:44;;;;;;;29.15;12.20;;;17.00;99.90;;;;;;5063832;28;20032;-70
2022/10/29 03:33:10;;;;;;;28.05;12.38;;;17.00;99.90;;;;;;5064979;28;20030;-71
2022/10/29 03:35:36;;;;;;;15.60;9.70;;;17.00;99.90;;;;;;5065206;28;20063;-71
2022/10/29 03:38:02;;;;;;;24.75;10.23;;;17.00;99.90;;;;;;5067427;28;20021;-71
2022/10/29 03:40:27;;;;;;;17.55;9.48;;;17.00;99.90;;;;;;5062498;28;20025;-70
2022/10/29 03:42:53;;;;;;;20.45;9.02;;;16.90;99.90;;;;;;5062384;28;20040;-71
2022/10/29 03:45:18;;;;;;;22.10;8.38;;;17.00;99.90;;;;;;5059853;28;20032;-70
2022/10/29 03:47:44;;;;;;;27.98;10.73;;;16.90;99.90;;;;;;5061885;28;20055;-71
2022/10/29 03:50:10;;;;;;;25.40;9.70;;;16.70;99.90;;;;;;5060047;28;20124;-71
2022/10/29 03:52:36;;;;;;;20.90;8.57;;;16.50;99.90;;;;;;5077132;28;20025;-71
2022/10/29 03:55:01;;;;;;;24.55;9.13;;;16.40;99.90;;;;;;5057115;28;20358;-70
2022/10/29 03:57:27;;;;;;;23.52;8.68;;;16.50;99.90;;;;;;5063044;28;20548;-70
2022/10/29 03:59:53;;;;;;;21.58;9.90;;;16.60;99.90;;;;;;5067287;28;20020;-70
2022/10/29 04:02:18;;;;;;;20.33;8.70;;;16.60;99.90;;;;;;5059445;28;20104;-72
2022/10/29 04:04:44;;;;;;;27.27;9.23;;;16.70;99.90;;;;;;5061114;28;20384;-71
2022/10/29 04:07:11;;;;;;;25.05;9.45;;;16.70;99.90;;;;;;5060615;28;20025;-70
2022/10/29 04:09:36;;;;;;;22.10;9.15;;;16.70;99.90;;;;;;5063304;28;20047;-71
2022/10/29 04:12:02;;;;;;;27.50;9.27;;;16.70;99.90;;;;;;5065325;28;20462;-70
2022/10/29 04:14:28;;;;;;;24.55;10.18;;;16.60;99.90;;;;;;5059060;28;20032;-71
2022/10/29 04:16:54;;;;;;;25.95;10.77;;;16.60;99.90;;;;;;5065136;28;20041;-71
2022/10/29 04:19:19;;;;;;;21.33;10.13;;;16.60;99.90;;;;;;5062218;28;20071;-70
2022/10/29 04:21:45;;;;;;;28.05;10.55;;;16.60;99.90;;;;;;5060422;28;20388;-71
2022/10/29 04:24:11;;;;;;;21.63;9.70;;;16.60;99.90;;;;;;5057145;28;20116;-71
2022/10/29 04:26:36;;;;;;;23.50;11.25;;;16.60;99.90;;;;;;5059073;28;20485;-70
2022/10/29 04:29:02;;;;;;;23.30;10.82;;;16.60;99.90;;;;;;5058325;28;20112;-71
2022/10/29 04:31:28;;;;;;;26.65;10.95;;;16.60;99.90;;;;;;5062083;28;20021;-70
2022/10/29 04:33:53;;;;;;;33.60;11.10;;;16.60;99.90;;;;;;5058112;28;20029;-70
2022/10/29 04:36:19;;;;;;;25.83;11.95;;;16.60;99.90;;;;;;5069065;28;20017;-70
2022/10/29 04:38:45;;;;;;;26.33;12.02;;;16.60;99.90;;;;;;5062611;28;20043;-71
2022/10/29 04:41:10;;;;;;;29.83;12.55;;;16.60;99.90;;;;;;5057779;28;20017;-70
2022/10/29 04:43:36;;;;;;;33.90;12.35;;;16.70;99.90;;;;;;5064185;28;20029;-70
2022/10/29 04:46:02;;;;;;;25.92;10.18;;;16.70;99.90;;;;;;5060708;28;20029;-70
2022/10/29 04:48:28;;;;;;;26.85;11.65;;;16.60;99.90;;;;;;5063672;28;20032;-70
2022/10/29 04:50:54;;;;;;;23.75;9.50;;;16.60;99.90;;;;;;5063399;28;20020;-70
2022/10/29 04:53:20;;;;;;;25.27;10.07;;;16.60;99.90;;;;;;5063015;28;20108;-70
2022/10/29 04:55:46;;;;;;;30.23;9.98;;;16.70;99.90;;;;;;5065924;28;20407;-71
2022/10/29 04:58:15;;;;;;;30.20;11.27;;;16.60;99.90;;;;;;5066150;28;20092;-71
2022/10/29 05:00:41;;;;;;;19.83;9.48;;;16.60;99.90;;;;;;5065281;28;20029;-70
2022/10/29 05:03:07;;;;;;;32.60;10.35;;;16.60;99.90;;;;;;5059648;28;20105;-71
2022/10/29 05:05:33;;;;;;;30.02;12.02;;;16.60;99.90;;;;;;5058684;28;20039;-71
2022/10/29 05:08:00;;;;;;;34.63;13.35;;;16.60;99.90;;;;;;5061385;28;20020;-70
2022/10/29 05:10:31;;;;;;;28.33;12.98;;;16.70;99.90;;;;;;5062620;28;20396;-71
2022/10/29 05:12:59;;;;;;;25.90;13.40;;;16.60;99.90;;;;;;5056174;28;20048;-71
2022/10/29 05:15:25;;;;;;;27.73;15.20;;;16.60;99.90;;;;;;5061744;28;20051;-70
2022/10/29 05:17:50;;;;;;;23.85;11.82;;;16.70;99.90;;;;;;5060497;28;20035;-70
2022/10/29 05:20:16;;;;;;;24.10;10.23;;;16.70;99.90;;;;;;5056656;28;20431;-71
2022/10/29 05:22:42;;;;;;;24.52;11.90;;;16.60;99.90;;;;;;5070679;28;20461;-71
2022/10/29 05:25:08;;;;;;;31.25;11.52;;;16.60;99.90;;;;;;5059140;28;20036;-71
2022/10/29 05:27:33;;;;;;;24.45;11.20;;;16.60;99.90;;;;;;5054485;28;20031;-70
2022/10/29 05:29:59;;;;;;;23.25;10.20;;;16.60;99.90;;;;;;5057647;28;20053;-70
2022/10/29 05:32:27;;;;;;;32.03;12.98;;;16.70;99.90;;;;;;5062740;28;20053;-70
2022/10/29 05:34:53;;;;;;;33.88;12.95;;;16.60;99.90;;;;;;5055622;28;20098;-71
2022/10/29 05:37:18;;;;;;;31.75;12.07;;;16.70;99.90;;;;;;5063087;28;20016;-71
2022/10/29 05:39:44;;;;;;;32.17;12.30;;;16.70;99.90;;;;;;5059667;28;20477;-70
2022/10/29 05:42:10;;;;;;;29.05;13.20;;;16.60;99.90;;;;;;5063677;28;20469;-71
2022/10/29 05:44:35;;;;;;;25.25;12.80;;;16.50;99.90;;;;;;5060503;28;20021;-70
2022/10/29 05:47:02;;;;;;;25.50;11.70;;;16.50;99.90;;;;;;5056917;28;20032;-70
2022/10/29 05:49:28;;;;;;;31.80;13.80;;;16.50;99.90;;;;;;5058331;28;20017;-70
2022/10/29 05:51:53;;;;;;;28.88;11.63;;;16.50;99.90;;;;;;5055162;28;20115;-71
2022/10/29 05:54:19;;;;;;;27.38;13.43;;;16.50;99.90;;;;;;5058726;28;20021;-70
2022/10/29 05:56:44;;;;;;;29.65;12.40;;;16.50;99.90;;;;;;5060967;28;20044;-70
2022/10/29 05:59:10;;;;;;;25.23;13.13;;;16.50;99.90;;;;;;5058060;28;20021;-71
2022/10/29 06:01:36;;;;;;;22.90;11.02;;;16.60;99.90;;;;;;5062105;28;20067;-71
2022/10/29 06:04:01;;;;;;;26.75;12.02;;;16.60;99.90;;;;;;5059832;28;20056;-71
2022/10/29 06:06:27;;;;;;;26.40;12.80;;;16.60;99.90;;;;;;5060995;28;20032;-72
2022/10/29 06:08:53;;;;;;;32.00;15.27;;;16.60;99.90;;;;;;5055372;28;20070;-70
2022/10/29 06:11:18;;;;;;;31.75;14.90;;;16.60;99.90;;;;;;5059849;28;20021;-71
2022/10/29 06:13:44;;;;;;;33.60;13.85;;;16.60;99.90;;;;;;5059517;28;20025;-71
2022/10/29 06:16:09;;;;;;;29.67;13.52;;;16.60;99.90;;;;;;5060196;28;20120;-70
2022/10/29 06:18:35;;;;;;;28.42;13.23;;;16.60;99.90;;;;;;5061355;28;20052;-71
2022/10/29 06:21:01;;;;;;;27.27;12.90;;;16.60;99.90;;;;;;5055346;28;20060;-71
2022/10/29 06:23:27;;;;;;;32.35;13.25;;;16.60;99.90;;;;;;5057945;28;20033;-70
2022/10/29 06:25:53;;;;;;;28.75;13.63;;;16.70;99.90;;;;;;5061737;28;20025;-71
2022/10/29 06:28:19;;;;;;;30.00;13.07;;;16.50;99.90;;;;;;5062475;28;20020;-71
2022/10/29 06:30:49;;;;;;;22.83;12.45;;;16.50;99.90;;;;;;5066148;28;20048;-71
2022/10/29 06:33:16;;;;;;;30.17;12.63;;;16.50;99.90;;;;;;5061141;28;20099;-71
2022/10/29 06:35:42;;;;;;;35.15;15.20;;;16.50;99.90;;;;;;5067724;28;20017;-72
2022/10/29 06:38:08;;;;;;;36.83;14.13;;;16.40;99.90;;;;;;5069336;28;20112;-70
2022/10/29 06:40:34;;;;;;;28.17;13.10;;;16.30;99.90;;;;;;5060583;28;20112;-71
2022/10/29 06:43:05;;;;;;;38.83;16.10;;;16.50;99.90;;;;;;5063378;28;20544;-71
2022/10/29 06:45:33;;;;;;;31.73;14.43;;;16.50;99.90;;;;;;5064168;28;20025;-71
2022/10/29 06:47:58;;;;;;;34.70;14.52;;;16.50;99.90;;;;;;5063167;28;20036;-71
2022/10/29 06:50:24;;;;;;;29.50;13.88;;;16.50;99.90;;;;;;5066410;28;20112;-71
2022/10/29 06:53:01;;;;;;;34.20;14.25;;;16.50;99.90;;;;;;5060588;28;20461;-70
2022/10/29 06:55:27;;;;;;;35.95;14.63;;;16.50;99.90;;;;;;5062491;28;20113;-70
2022/10/29 06:58:01;;;;;;;35.22;14.23;;;16.50;99.90;;;;;;5057265;28;20477;-71
2022/10/29 07:00:28;;;;;;;37.83;16.23;;;16.60;99.90;;;;;;5061354;28;20020;-71
2022/10/29 07:02:55;;;;;;;33.15;14.23;;;16.60;99.90;;;;;;5060062;28;20138;-71
2022/10/29 07:05:22;;;;;;;35.88;14.65;;;16.60;99.90;;;;;;5059555;28;20024;-70
2022/10/29 07:07:48;;;;;;;31.70;13.50;;;16.70;99.90;;;;;;5062307;28;20033;-71
2022/10/29 07:10:14;;;;;;;34.80;15.45;;;16.50;99.90;;;;;;5060165;28;20032;-71
2022/10/29 07:12:43;;;;;;;31.58;14.75;;;16.60;99.90;;;;;;5060960;28;20036;-71
2022/10/29 07:15:10;;;;;;;33.63;14.98;;;16.60;99.90;;;;;;5061603;28;20026;-71
2022/10/29 07:17:36;;;;;;;22.75;12.18;;;16.60;99.90;;;;;;5060441;28;20032;-71
2022/10/29 07:20:03;;;;;;;28.63;11.63;;;16.50;99.90;;;;;;5069747;28;20021;-71
2022/10/29 07:22:28;;;;;;;25.67;11.88;;;16.50;99.90;;;;;;5061020;28;20032;-71
2022/10/29 07:24:54;;;;;;;24.90;13.93;;;16.50;99.90;;;;;;5076922;28;20033;-71
2022/10/29 07:27:20;;;;;;;28.42;12.07;;;16.60;99.90;;;;;;5057629;28;20595;-71
2022/10/29 07:29:45;;;;;;;27.30;12.60;;;16.60;99.90;;;;;;5056859;28;20029;-71
2022/10/29 07:32:11;;;;;;;28.45;14.30;;;16.60;99.90;;;;;;5063480;28;20112;-71
2022/10/29 07:34:36;;;;;;;30.10;13.35;;;16.70;99.90;;;;;;5059113;28;20032;-71
2022/10/29 07:37:02;;;;;;;32.58;15.45;;;16.70;99.90;;;;;;5057159;28;20025;-71
2022/10/29 07:39:28;;;;;;;41.30;14.82;;;16.60;99.90;;;;;;5061534;28;20487;-71
2022/10/29 07:41:54;;;;;;;29.92;13.98;;;16.60;99.90;;;;;;5059176;28;20033;-70
2022/10/29 07:44:20;;;;;;;33.95;14.88;;;16.70;99.90;;;;;;5064467;28;20527;-74
2022/10/29 07:46:45;;;;;;;28.48;16.10;;;16.70;99.90;;;;;;5061824;28;20032;-73
2022/10/29 07:49:11;;;;;;;37.58;13.10;;;16.70;99.90;;;;;;5064850;28;20092;-73
2022/10/29 07:51:36;;;;;;;31.15;13.65;;;16.70;99.90;;;;;;5062816;28;20434;-73
2022/10/29 07:54:02;;;;;;;27.50;12.55;;;16.70;99.90;;;;;;5059776;28;20025;-74
2022/10/29 07:56:28;;;;;;;29.25;12.75;;;16.70;99.90;;;;;;5061152;28;20027;-73
2022/10/29 07:58:53;;;;;;;29.40;14.93;;;16.70;99.90;;;;;;5063330;28;20064;-73
2022/10/29 08:01:19;;;;;;;25.80;11.93;;;16.80;99.90;;;;;;5055455;28;20056;-73
2022/10/29 08:03:44;;;;;;;28.75;12.65;;;16.70;99.90;;;;;;5060868;28;20032;-73
2022/10/29 08:06:10;;;;;;;25.90;12.80;;;16.70;99.90;;;;;;5060191;28;20374;-73
2022/10/29 08:08:36;;;;;;;30.92;12.10;;;16.70;99.90;;;;;;5060415;28;20052;-73
2022/10/29 08:11:03;;;;;;;21.50;11.88;;;16.80;99.90;;;;;;5057931;28;20025;-72
2022/10/29 08:13:30;;;;;;;25.02;12.98;;;16.80;99.90;;;;;;5062943;28;20116;-72
2022/10/29 08:15:56;;;;;;;27.13;13.05;;;16.80;99.90;;;;;;5061023;28;20489;-72
2022/10/29 08:18:21;;;;;;;25.52;12.18;;;16.80;99.90;;;;;;5058211;28;20029;-73
2022/10/29 08:20:47;;;;;;;24.13;11.18;;;16.90;99.90;;;;;;5059930;28;20099;-72
2022/10/29 08:23:13;;;;;;;22.55;11.30;;;16.90;99.90;;;;;;5058185;28;20409;-72
2022/10/29 08:25:40;;;;;;;24.88;11.32;;;17.00;99.90;;;;;;5057235;28;20021;-72
2022/10/29 08:28:07;;;;;;;23.08;10.75;;;17.00;99.90;;;;;;5055687;28;20029;-72
2022/10/29 08:30:33;;;;;;;22.92;11.50;;;17.10;99.90;;;;;;5066150;28;20061;-73
2022/10/29 08:33:00;;;;;;;33.53;12.27;;;17.10;99.90;;;;;;5061299;28;20025;-73
2022/10/29 08:35:26;;;;;;;24.33;11.15;;;17.20;99.90;;;;;;5060673;28;20070;-73
2022/10/29 08:37:52;;;;;;;20.88;9.95;;;17.30;99.90;;;;;;5056172;28;20095;-73
2022/10/29 08:40:32;;;;;;;20.38;10.35;;;17.30;99.90;;;;;;5062245;28;20021;-73
2022/10/29 08:43:00;;;;;;;24.42;11.18;;;17.20;99.90;;;;;;5059376;28;20040;-74
2022/10/29 08:45:45;;;;;;;27.50;11.18;;;17.30;99.90;;;;;;5062080;28;20108;-72
2022/10/29 08:48:38;;;;;;;25.40;11.05;;;17.30;99.90;;;;;;5060846;28;20037;-73
2022/10/29 08:51:14;;;;;;;20.25;9.90;;;17.40;99.90;;;;;;5059578;28;20036;-73
2022/10/29 08:53:42;;;;;;;23.30;10.10;;;17.40;99.90;;;;;;5070952;28;20377;-73
2022/10/29 08:56:36;;;;;;;19.42;8.73;;;17.50;99.90;;;;;;5060615;28;20275;-72
2022/10/29 08:59:17;;;;;;;20.73;9.60;;;17.60;99.90;;;;;;5071659;28;20025;-72
2022/10/29 09:01:43;;;;;;;16.10;9.73;;;17.60;99.90;;;;;;5061605;28;20116;-72
2022/10/29 09:04:33;;;;;;;24.80;11.57;;;17.70;99.90;;;;;;5062077;28;20029;-73
2022/10/29 09:07:33;;;;;;;15.45;9.13;;;17.80;99.90;;;;;;5065746;28;20032;-74
2022/10/29 09:10:19;;;;;;;19.70;9.63;;;18.00;99.90;;;;;;5062042;28;20021;-73
2022/10/29 09:13:18;;;;;;;20.27;9.90;;;18.10;99.90;;;;;;5062494;28;20050;-73
2022/10/29 09:16:10;;;;;;;20.80;9.60;;;18.30;99.90;;;;;;5058036;28;20037;-73
2022/10/29 09:18:57;;;;;;;21.83;9.25;;;18.50;99.90;;;;;;5058087;28;20512;-72
2022/10/29 09:21:37;;;;;;;18.15;8.45;;;18.70;99.90;;;;;;5060791;28;20096;-73
2022/10/29 09:24:18;;;;;;;17.60;8.07;;;18.70;99.90;;;;;;5061634;28;20037;-72
2022/10/29 09:27:12;;;;;;;18.70;8.60;;;18.80;99.90;;;;;;5059821;28;20031;-71
2022/10/29 09:30:01;;;;;;;20.77;8.02;;;18.90;99.90;;;;;;5061367;28;20025;-74
2022/10/29 09:32:35;;;;;;;17.67;8.50;;;18.90;99.90;;;;;;5064410;28;20026;-72
2022/10/29 09:35:14;;;;;;;23.05;8.82;;;19.00;99.90;;;;;;5059641;28;20028;-73
2022/10/29 09:37:47;;;;;;;16.30;8.10;;;19.10;99.90;;;;;;5056108;28;20025;-73
2022/10/29 09:40:37;;;;;;;21.38;7.60;;;19.20;99.90;;;;;;5061613;28;20036;-73
2022/10/29 09:43:39;;;;;;;17.67;7.25;;;19.20;99.90;;;;;;5062979;28;20033;-73
2022/10/29 09:46:25;;;;;;;16.58;7.72;;;19.30;99.90;;;;;;5060703;28;20431;-72
2022/10/29 09:49:06;;;;;;;20.85;7.03;;;19.30;99.90;;;;;;5059672;28;20061;-76
2022/10/29 09:51:57;;;;;;;15.80;7.07;;;19.40;99.90;;;;;;5056872;28;20026;-74
2022/10/29 09:54:26;;;;;;;19.23;8.13;;;19.50;99.90;;;;;;5059631;28;20412;-75
2022/10/29 09:56:51;;;;;;;17.70;7.80;;;19.70;99.90;;;;;;5056820;28;20036;-75
2022/10/29 09:59:37;;;;;;;16.20;7.90;;;19.80;99.90;;;;;;5062207;28;20025;-75
2022/10/29 10:02:29;;;;;;;16.77;7.00;;;20.00;99.90;;;;;;5064165;28;20071;-75
2022/10/29 10:05:05;;;;;;;19.35;7.43;;;20.10;99.90;;;;;;5069943;28;20507;-75
2022/10/29 10:07:30;;;;;;;19.55;7.25;;;20.30;99.90;;;;;;5054130;28;20025;-76
2022/10/29 10:09:58;;;;;;;20.70;7.00;;;20.30;99.90;;;;;;5034549;28;20036;-76
2022/10/29 10:12:46;;;;;;;19.13;6.78;;;20.50;99.90;;;;;;5052787;28;20025;-76
2022/10/29 10:15:14;;;;;;;18.38;7.28;;;20.40;99.90;;;;;;5051565;28;20111;-76
2022/10/29 10:18:05;;;;;;;12.57;6.20;;;20.60;99.90;;;;;;5050947;28;20029;-75
2022/10/29 10:20:32;;;;;;;18.75;6.07;;;20.70;99.90;;;;;;5051737;28;22262;-75
2022/10/29 10:22:58;;;;;;;16.42;6.47;;;20.80;99.90;;;;;;5052068;28;20112;-77
2022/10/29 10:25:35;;;;;;;17.13;6.03;;;20.80;99.90;;;;;;5050951;28;20096;-76
2022/10/29 10:28:18;;;;;;;18.27;5.65;;;20.90;99.90;;;;;;5052279;28;20039;-76
2022/10/29 10:31:02;;;;;;;13.18;5.20;;;20.90;99.90;;;;;;5050641;28;20025;-75
2022/10/29 10:33:29;;;;;;;12.35;5.30;;;20.90;99.90;;;;;;5052739;28;20103;-76
2022/10/29 10:36:04;;;;;;;19.13;5.10;;;21.10;99.90;;;;;;5048734;28;20017;-76
2022/10/29 10:38:46;;;;;;;18.83;5.25;;;21.20;99.90;;;;;;5052793;28;20036;-76
2022/10/29 10:41:14;;;;;;;16.42;6.28;;;21.20;99.90;;;;;;5050008;28;20025;-75
2022/10/29 10:43:44;;;;;;;13.77;5.55;;;21.30;99.90;;;;;;5052399;28;20531;-75
2022/10/29 10:46:21;;;;;;;20.20;5.72;;;21.30;99.90;;;;;;5050354;28;20013;-78
2022/10/29 10:49:01;;;;;;;14.60;5.82;;;21.40;99.90;;;;;;5057349;28;20032;-75
2022/10/29 10:51:29;;;;;;;13.23;5.53;;;21.50;99.90;;;;;;5062645;28;20081;-76
2022/10/29 10:53:56;;;;;;;15.18;5.63;;;21.50;99.90;;;;;;5062106;28;20020;-75
2022/10/29 10:56:22;;;;;;;21.40;6.10;;;21.50;99.90;;;;;;5064324;28;20186;-75
2022/10/29 10:59:00;;;;;;;17.30;5.05;;;21.60;99.90;;;;;;5056690;28;20161;-75
2022/10/29 11:01:38;;;;;;;16.63;5.25;;;21.70;99.90;;;;;;5063832;28;20477;-75
2022/10/29 11:04:14;;;;;;;13.48;4.97;;;21.80;99.90;;;;;;5067430;28;20032;-75
2022/10/29 11:06:43;;;;;;;17.67;5.57;;;22.00;99.90;;;;;;5060836;28;20032;-76
2022/10/29 11:09:29;;;;;;;21.65;5.28;;;22.00;99.90;;;;;;5062811;28;20028;-75
2022/10/29 11:12:24;;;;;;;19.38;5.78;;;22.10;99.90;;;;;;5059259;28;20048;-75
2022/10/29 11:14:57;;;;;;;17.48;4.40;;;22.20;99.90;;;;;;5070744;28;20097;-75
2022/10/29 11:17:29;;;;;;;14.20;5.32;;;22.30;99.90;;;;;;5062680;28;20033;-75
2022/10/29 11:20:27;;;;;;;17.15;4.85;;;22.30;99.90;;;;;;5060183;28;20128;-75
2022/10/29 11:23:12;;;;;;;15.50;4.57;;;22.40;99.90;;;;;;5056587;28;20103;-76
2022/10/29 11:25:46;;;;;;;10.23;4.72;;;22.50;99.90;;;;;;5064414;28;20097;-75
2022/10/29 11:28:37;;;;;;;10.27;4.25;;;22.50;99.90;;;;;;5057679;28;20036;-77
2022/10/29 11:31:31;;;;;;;21.98;4.78;;;22.60;99.90;;;;;;5064356;28;20042;-74
2022/10/29 11:34:21;;;;;;;11.95;4.32;;;22.60;99.90;;;;;;5060179;28;20068;-75
2022/10/29 11:37:27;;;;;;;13.35;4.82;;;22.70;99.90;;;;;;5060412;28;20074;-75
2022/10/29 11:39:58;;;;;;;13.45;4.95;;;22.80;99.90;;;;;;5054112;28;20061;-75
2022/10/29 11:42:24;;;;;;;13.23;4.63;;;22.80;99.90;;;;;;5056699;28;20025;-75
2022/10/29 11:44:50;;;;;;;14.00;4.45;;;22.80;99.90;;;;;;5057373;28;20334;-75
2022/10/29 11:47:17;;;;;;;16.17;4.90;;;22.90;99.90;;;;;;5055545;28;20028;-75
2022/10/29 11:49:49;;;;;;;13.95;4.72;;;22.90;99.90;;;;;;5056337;28;20061;-76
2022/10/29 11:52:21;;;;;;;13.55;4.65;;;22.90;99.90;;;;;;5057957;28;20025;-74
2022/10/29 11:54:55;;;;;;;14.45;4.35;;;22.90;99.90;;;;;;5057918;28;20035;-74
2022/10/29 11:57:29;;;;;;;14.68;4.65;;;22.90;99.90;;;;;;5059585;28;20029;-73
2022/10/29 12:00:23;;;;;;;16.42;4.45;;;22.90;99.90;;;;;;5057629;28;20029;-73
2022/10/29 12:03:27;;;;;;;11.20;4.78;;;22.90;99.90;;;;;;5060678;28;20167;-73
2022/10/29 12:05:55;;;;;;;17.73;4.75;;;23.00;99.90;;;;;;5054572;28;20082;-74
2022/10/29 12:08:21;;;;;;;16.92;4.68;;;23.00;99.90;;;;;;5061904;28;20397;-73
2022/10/29 12:11:22;;;;;;;16.27;4.57;;;23.10;99.90;;;;;;5060415;28;20029;-73
2022/10/29 12:14:03;;;;;;;10.43;4.15;;;23.00;99.90;;;;;;5040542;28;20040;-74
2022/10/29 12:16:50;;;;;;;16.08;5.13;;;23.00;99.90;;;;;;5055058;28;20025;-73
2022/10/29 12:19:59;;;;;;;22.90;4.72;;;23.00;99.90;;;;;;5060713;28;20032;-73
2022/10/29 12:22:31;;;;;;;14.38;4.15;;;23.00;99.90;;;;;;5029320;28;20045;-73
2022/10/29 12:24:56;;;;;;;13.63;4.25;;;23.10;99.90;;;;;;5006188;28;20026;-72
2022/10/29 12:27:34;;;;;;;16.05;4.57;;;23.00;99.90;;;;;;5041384;28;20040;-73
2022/10/29 12:30:04;;;;;;;13.15;4.22;;;23.10;99.90;;;;;;5056905;28;20119;-73
2022/10/29 12:32:35;;;;;;;12.80;4.70;;;23.00;99.90;;;;;;5059392;28;20025;-73
2022/10/29 12:35:05;;;;;;;17.00;4.18;;;23.00;99.90;;;;;;5056167;28;20021;-75
2022/10/29 12:37:58;;;;;;;14.23;4.03;;;23.10;99.90;;;;;;5060969;28;20496;-75
2022/10/29 12:40:29;;;;;;;18.52;4.97;;;23.10;99.90;;;;;;5055859;28;20029;-77
2022/10/29 12:42:59;;;;;;;15.90;4.57;;;23.10;99.90;;;;;;5067113;28;20035;-77
2022/10/29 12:45:38;;;;;;;18.00;5.15;;;23.20;99.90;;;;;;5066007;28;20029;-76
2022/10/29 12:48:35;;;;;;;13.95;4.97;;;23.20;99.90;;;;;;5052591;28;20032;-76
2022/10/29 12:51:13;;;;;;;12.80;4.40;;;23.20;99.90;;;;;;5076720;28;20384;-76
2022/10/29 12:54:00;;;;;;;13.88;4.55;;;23.10;99.90;;;;;;5058771;28;20047;-76
2022/10/29 12:56:27;;;;;;;18.58;4.18;;;23.20;99.90;;;;;;5060493;28;20063;-76